TimeCDT,TemperatureF,Dew PointF,Humidity,Sea Level PressureIn,VisibilityMPH,Wind Direction,Wind SpeedMPH,Gust SpeedMPH,PrecipitationIn,Events,Conditions,WindDirDegrees,DateUTC
12:47 AM,71.6,69.8,94,29.86,10.0,South,3.5,-,N/A,Rain,Light Rain,190,2013-05-29 05:47:00
12:57 AM,69.8,69.8,100,29.87,10.0,NNW,3.5,-,N/A,,Overcast,340,2013-05-29 05:57:00
12:58 AM,70.9,70.5,99,29.86,10.0,North,3.5,-,0.00,,Overcast,350,2013-05-29 05:58:00
1:58 AM,68.9,68.0,97,29.88,10.0,NE,8.1,-,0.00,,Overcast,50,2013-05-29 06:58:00
2:58 AM,66.7,64.0,91,29.86,10.0,East,6.9,-,N/A,,Mostly Cloudy,100,2013-05-29 07:58:00
3:58 AM,66.4,65.8,98,29.84,10.0,SE,6.9,-,N/A,,Scattered Clouds,130,2013-05-29 08:58:00
4:58 AM,70.9,67.8,90,29.83,10.0,SSE,10.4,-,N/A,,Clear,150,2013-05-29 09:58:00
5:58 AM,71.1,67.5,88,29.82,10.0,SSE,10.4,18.4,N/A,,Clear,160,2013-05-29 10:58:00
6:58 AM,70.2,68.2,93,29.84,10.0,South,10.4,-,N/A,,Scattered Clouds,180,2013-05-29 11:58:00
7:58 AM,70.5,69.1,95,29.83,10.0,South,11.5,-,N/A,,Clear,180,2013-05-29 12:58:00
8:58 AM,72.9,69.8,90,29.82,10.0,South,15.0,20.7,N/A,,Partly Cloudy,180,2013-05-29 13:58:00
9:58 AM,76.8,70.2,80,29.81,10.0,SSW,17.3,25.3,N/A,,Scattered Clouds,200,2013-05-29 14:58:00
10:58 AM,78.4,70.7,77,29.82,10.0,South,20.7,27.6,N/A,,Scattered Clouds,180,2013-05-29 15:58:00
11:58 AM,80.2,70.0,71,29.81,10.0,South,18.4,25.3,N/A,,Clear,190,2013-05-29 16:58:00
12:58 PM,81.3,69.6,67,29.80,10.0,South,20.7,29.9,N/A,,Partly Cloudy,180,2013-05-29 17:58:00
1:58 PM,81.7,69.8,67,29.79,10.0,South,21.9,28.8,N/A,,Mostly Cloudy,190,2013-05-29 18:58:00
2:58 PM,82.2,69.1,64,29.79,10.0,South,17.3,24.2,N/A,,Mostly Cloudy,190,2013-05-29 19:58:00
3:58 PM,82.0,69.4,65,29.78,10.0,South,18.4,26.5,N/A,,Partly Cloudy,190,2013-05-29 20:58:00
4:58 PM,81.3,68.7,65,29.75,10.0,South,18.4,26.5,N/A,,Mostly Cloudy,180,2013-05-29 21:58:00
5:58 PM,80.8,68.7,67,29.73,10.0,South,17.3,25.3,N/A,,Clear,180,2013-05-29 22:58:00
6:58 PM,78.6,67.6,69,29.71,10.0,South,17.3,23.0,N/A,,Clear,170,2013-05-29 23:58:00
7:58 PM,77.4,67.6,72,29.71,10.0,South,12.7,21.9,N/A,,Clear,170,2013-05-30 00:58:00
8:58 PM,76.1,67.5,74,29.74,10.0,South,12.7,19.6,N/A,,Mostly Cloudy,170,2013-05-30 01:58:00
9:58 PM,74.8,67.6,78,29.76,10.0,SSE,10.4,-,N/A,,Mostly Cloudy,160,2013-05-30 02:58:00
10:58 PM,74.7,66.0,74,29.75,10.0,SSE,12.7,19.6,N/A,,Mostly Cloudy,160,2013-05-30 03:58:00
11:55 PM,73.4,66.2,78,29.78,10.0,SSW,15.0,-,N/A,,Mostly Cloudy,210,2013-05-30 04:55:00
11:58 PM,74.3,65.7,74,29.79,10.0,WSW,24.2,29.9,N/A,,Mostly Cloudy,240,2013-05-30 04:58:00
11:59 PM,73.4,66.2,78,29.80,10.0,WSW,21.9,29.9,N/A,,Mostly Cloudy,250,2013-05-30 04:59:00